sensor_id;sensor_type;location;lat;lon;timestamp;temperature;humidity
11647;DHT22;5880;52.342;9.662;2022-12-20T00:00:59;9.60;68.50
11647;DHT22;5880;52.342;9.662;2022-12-20T00:03:25;9.60;68.50
11647;DHT22;5880;52.342;9.662;2022-12-20T00:05:51;9.60;68.40
11647;DHT22;5880;52.342;9.662;2022-12-20T00:08:16;9.60;68.40
11647;DHT22;5880;52.342;9.662;2022-12-20T00:10:44;9.60;68.30
11647;DHT22;5880;52.342;9.662;2022-12-20T00:13:11;9.60;68.30
11647;DHT22;5880;52.342;9.662;2022-12-20T00:15:37;9.50;68.30
11647;DHT22;5880;52.342;9.662;2022-12-20T00:18:03;9.50;68.30
11647;DHT22;5880;52.342;9.662;2022-12-20T00:20:29;9.40;69.00
11647;DHT22;5880;52.342;9.662;2022-12-20T00:22:55;9.50;68.40
11647;DHT22;5880;52.342;9.662;2022-12-20T00:25:21;9.40;68.30
11647;DHT22;5880;52.342;9.662;2022-12-20T00:27:48;9.40;68.40
11647;DHT22;5880;52.342;9.662;2022-12-20T00:30:14;9.40;68.50
11647;DHT22;5880;52.342;9.662;2022-12-20T00:32:41;9.40;68.60
11647;DHT22;5880;52.342;9.662;2022-12-20T00:35:07;9.40;68.60
11647;DHT22;5880;52.342;9.662;2022-12-20T00:37:34;9.30;68.70
11647;DHT22;5880;52.342;9.662;2022-12-20T00:39:59;9.30;68.90
11647;DHT22;5880;52.342;9.662;2022-12-20T00:42:25;9.30;69.00
11647;DHT22;5880;52.342;9.662;2022-12-20T00:44:51;9.30;69.10
11647;DHT22;5880;52.342;9.662;2022-12-20T00:47:16;9.30;69.10
11647;DHT22;5880;52.342;9.662;2022-12-20T00:49:42;9.30;69.30
11647;DHT22;5880;52.342;9.662;2022-12-20T00:52:08;9.30;69.40
11647;DHT22;5880;52.342;9.662;2022-12-20T00:54:34;9.40;69.50
11647;DHT22;5880;52.342;9.662;2022-12-20T00:56:59;9.40;69.50
11647;DHT22;5880;52.342;9.662;2022-12-20T00:59:25;9.40;69.50
11647;DHT22;5880;52.342;9.662;2022-12-20T01:01:51;9.40;69.30
11647;DHT22;5880;52.342;9.662;2022-12-20T01:04:16;9.40;69.40
11647;DHT22;5880;52.342;9.662;2022-12-20T01:06:42;9.40;69.50
11647;DHT22;5880;52.342;9.662;2022-12-20T01:09:10;9.50;69.40
11647;DHT22;5880;52.342;9.662;2022-12-20T01:11:37;9.40;69.40
11647;DHT22;5880;52.342;9.662;2022-12-20T01:14:12;9.50;69.60
11647;DHT22;5880;52.342;9.662;2022-12-20T01:16:41;9.50;69.80
11647;DHT22;5880;52.342;9.662;2022-12-20T01:19:11;9.50;69.70
11647;DHT22;5880;52.342;9.662;2022-12-20T01:21:40;9.50;69.60
11647;DHT22;5880;52.342;9.662;2022-12-20T01:24:17;9.50;69.60
11647;DHT22;5880;52.342;9.662;2022-12-20T01:26:45;9.50;69.70
11647;DHT22;5880;52.342;9.662;2022-12-20T01:29:11;9.50;69.50
11647;DHT22;5880;52.342;9.662;2022-12-20T01:31:38;9.50;69.40
11647;DHT22;5880;52.342;9.662;2022-12-20T01:34:04;9.50;69.60
11647;DHT22;5880;52.342;9.662;2022-12-20T01:36:33;9.50;69.70
11647;DHT22;5880;52.342;9.662;2022-12-20T01:39:08;9.50;69.80
11647;DHT22;5880;52.342;9.662;2022-12-20T01:41:38;9.60;69.90
11647;DHT22;5880;52.342;9.662;2022-12-20T01:46:51;9.60;70.30
11647;DHT22;5880;52.342;9.662;2022-12-20T01:52:22;9.70;70.40
11647;DHT22;5880;52.342;9.662;2022-12-20T01:54:58;9.70;70.50
11647;DHT22;5880;52.342;9.662;2022-12-20T01:57:52;9.70;70.40
11647;DHT22;5880;52.342;9.662;2022-12-20T02:00:21;9.70;70.40
11647;DHT22;5880;52.342;9.662;2022-12-20T02:02:48;9.80;70.20
11647;DHT22;5880;52.342;9.662;2022-12-20T02:05:19;9.80;70.10
11647;DHT22;5880;52.342;9.662;2022-12-20T02:07:49;9.90;70.20
11647;DHT22;5880;52.342;9.662;2022-12-20T02:10:18;9.90;70.30
11647;DHT22;5880;52.342;9.662;2022-12-20T02:12:47;9.90;70.20
11647;DHT22;5880;52.342;9.662;2022-12-20T02:18:28;10.00;70.30
11647;DHT22;5880;52.342;9.662;2022-12-20T02:24:24;10.00;70.40
11647;DHT22;5880;52.342;9.662;2022-12-20T02:30:17;10.00;70.20
11647;DHT22;5880;52.342;9.662;2022-12-20T02:35:35;10.10;70.30
11647;DHT22;5880;52.342;9.662;2022-12-20T02:38:23;10.10;70.30
11647;DHT22;5880;52.342;9.662;2022-12-20T02:41:09;10.10;70.30
11647;DHT22;5880;52.342;9.662;2022-12-20T02:43:44;10.10;70.60
11647;DHT22;5880;52.342;9.662;2022-12-20T02:46:35;10.10;70.50
11647;DHT22;5880;52.342;9.662;2022-12-20T02:49:08;10.10;70.50
11647;DHT22;5880;52.342;9.662;2022-12-20T02:51:39;10.20;70.50
11647;DHT22;5880;52.342;9.662;2022-12-20T02:54:09;10.20;70.50
11647;DHT22;5880;52.342;9.662;2022-12-20T02:56:42;10.20;70.60
11647;DHT22;5880;52.342;9.662;2022-12-20T02:59:23;10.30;70.70
11647;DHT22;5880;52.342;9.662;2022-12-20T03:01:55;10.30;70.70
11647;DHT22;5880;52.342;9.662;2022-12-20T03:04:24;10.40;70.50
11647;DHT22;5880;52.342;9.662;2022-12-20T03:07:18;10.40;70.30
11647;DHT22;5880;52.342;9.662;2022-12-20T03:09:44;10.40;70.40
11647;DHT22;5880;52.342;9.662;2022-12-20T03:12:11;10.50;70.30
11647;DHT22;5880;52.342;9.662;2022-12-20T03:14:39;10.50;70.20
11647;DHT22;5880;52.342;9.662;2022-12-20T03:17:06;10.50;70.20
11647;DHT22;5880;52.342;9.662;2022-12-20T03:19:32;10.50;70.20
11647;DHT22;5880;52.342;9.662;2022-12-20T03:21:58;10.50;70.00
11647;DHT22;5880;52.342;9.662;2022-12-20T03:24:24;10.60;70.00
11647;DHT22;5880;52.342;9.662;2022-12-20T03:26:50;10.60;69.90
11647;DHT22;5880;52.342;9.662;2022-12-20T03:29:16;10.60;69.90
11647;DHT22;5880;52.342;9.662;2022-12-20T03:31:42;10.60;69.80
11647;DHT22;5880;52.342;9.662;2022-12-20T03:34:08;10.60;69.90
11647;DHT22;5880;52.342;9.662;2022-12-20T03:36:33;10.60;69.80
11647;DHT22;5880;52.342;9.662;2022-12-20T03:38:59;10.60;69.80
11647;DHT22;5880;52.342;9.662;2022-12-20T03:41:25;10.60;69.70
11647;DHT22;5880;52.342;9.662;2022-12-20T03:43:51;10.60;69.70
11647;DHT22;5880;52.342;9.662;2022-12-20T03:46:17;10.60;69.70
11647;DHT22;5880;52.342;9.662;2022-12-20T03:48:43;10.50;69.70
11647;DHT22;5880;52.342;9.662;2022-12-20T03:51:09;10.60;69.70
11647;DHT22;5880;52.342;9.662;2022-12-20T03:53:35;10.50;69.70
11647;DHT22;5880;52.342;9.662;2022-12-20T03:56:00;10.50;69.70
11647;DHT22;5880;52.342;9.662;2022-12-20T03:58:26;10.50;69.70
11647;DHT22;5880;52.342;9.662;2022-12-20T04:00:52;10.50;69.80
11647;DHT22;5880;52.342;9.662;2022-12-20T04:03:17;10.50;69.90
11647;DHT22;5880;52.342;9.662;2022-12-20T04:05:43;10.50;69.90
11647;DHT22;5880;52.342;9.662;2022-12-20T04:08:09;10.50;69.90
11647;DHT22;5880;52.342;9.662;2022-12-20T04:10:35;10.50;70.00
11647;DHT22;5880;52.342;9.662;2022-12-20T04:13:20;10.50;70.10
11647;DHT22;5880;52.342;9.662;2022-12-20T04:15:46;10.60;70.00
11647;DHT22;5880;52.342;9.662;2022-12-20T04:18:12;10.60;70.10
11647;DHT22;5880;52.342;9.662;2022-12-20T04:20:37;10.60;70.00
11647;DHT22;5880;52.342;9.662;2022-12-20T04:23:03;10.60;70.10
11647;DHT22;5880;52.342;9.662;2022-12-20T04:25:28;10.60;70.10
11647;DHT22;5880;52.342;9.662;2022-12-20T04:27:54;10.60;70.10
11647;DHT22;5880;52.342;9.662;2022-12-20T04:30:20;10.60;70.10
11647;DHT22;5880;52.342;9.662;2022-12-20T04:32:46;10.70;70.20
11647;DHT22;5880;52.342;9.662;2022-12-20T04:35:11;10.70;70.10
11647;DHT22;5880;52.342;9.662;2022-12-20T04:37:37;10.70;70.10
11647;DHT22;5880;52.342;9.662;2022-12-20T04:40:04;10.70;70.10
11647;DHT22;5880;52.342;9.662;2022-12-20T04:42:31;10.70;70.10
11647;DHT22;5880;52.342;9.662;2022-12-20T04:44:57;10.80;70.10
11647;DHT22;5880;52.342;9.662;2022-12-20T04:47:23;10.80;70.10
11647;DHT22;5880;52.342;9.662;2022-12-20T04:49:49;10.80;70.10
11647;DHT22;5880;52.342;9.662;2022-12-20T04:52:14;10.90;70.20
11647;DHT22;5880;52.342;9.662;2022-12-20T04:54:58;10.90;70.10
11647;DHT22;5880;52.342;9.662;2022-12-20T04:57:24;10.90;70.00
11647;DHT22;5880;52.342;9.662;2022-12-20T04:59:50;11.00;70.00
11647;DHT22;5880;52.342;9.662;2022-12-20T05:02:15;11.00;69.90
11647;DHT22;5880;52.342;9.662;2022-12-20T05:04:41;11.00;69.90
11647;DHT22;5880;52.342;9.662;2022-12-20T05:07:07;11.00;69.90
11647;DHT22;5880;52.342;9.662;2022-12-20T05:09:33;11.10;69.90
11647;DHT22;5880;52.342;9.662;2022-12-20T05:11:58;11.10;69.70
11647;DHT22;5880;52.342;9.662;2022-12-20T05:14:24;11.10;69.60
11647;DHT22;5880;52.342;9.662;2022-12-20T05:16:50;11.10;69.60
11647;DHT22;5880;52.342;9.662;2022-12-20T05:19:15;11.10;69.60
11647;DHT22;5880;52.342;9.662;2022-12-20T05:21:41;11.10;69.60
11647;DHT22;5880;52.342;9.662;2022-12-20T05:24:25;11.20;69.50
11647;DHT22;5880;52.342;9.662;2022-12-20T05:27:09;11.20;69.40
11647;DHT22;5880;52.342;9.662;2022-12-20T05:29:35;11.20;69.40
11647;DHT22;5880;52.342;9.662;2022-12-20T05:32:00;11.20;69.30
11647;DHT22;5880;52.342;9.662;2022-12-20T05:34:26;11.20;69.30
11647;DHT22;5880;52.342;9.662;2022-12-20T05:36:52;11.20;69.40
11647;DHT22;5880;52.342;9.662;2022-12-20T05:39:17;11.20;69.50
11647;DHT22;5880;52.342;9.662;2022-12-20T05:41:43;11.20;69.40
11647;DHT22;5880;52.342;9.662;2022-12-20T05:44:09;11.20;69.30
11647;DHT22;5880;52.342;9.662;2022-12-20T05:46:34;11.20;69.40
11647;DHT22;5880;52.342;9.662;2022-12-20T05:49:00;11.20;69.40
11647;DHT22;5880;52.342;9.662;2022-12-20T05:51:26;11.20;69.30
11647;DHT22;5880;52.342;9.662;2022-12-20T05:53:51;11.30;69.50
11647;DHT22;5880;52.342;9.662;2022-12-20T05:56:17;11.30;69.40
11647;DHT22;5880;52.342;9.662;2022-12-20T05:58:43;11.30;69.30
11647;DHT22;5880;52.342;9.662;2022-12-20T06:01:08;11.30;69.40
11647;DHT22;5880;52.342;9.662;2022-12-20T06:03:35;11.30;69.40
11647;DHT22;5880;52.342;9.662;2022-12-20T06:06:02;11.30;69.60
11647;DHT22;5880;52.342;9.662;2022-12-20T06:08:27;11.30;69.40
11647;DHT22;5880;52.342;9.662;2022-12-20T06:10:53;11.30;69.50
11647;DHT22;5880;52.342;9.662;2022-12-20T06:13:19;11.30;69.40
11647;DHT22;5880;52.342;9.662;2022-12-20T06:15:45;11.30;69.40
11647;DHT22;5880;52.342;9.662;2022-12-20T06:18:11;11.30;69.30
11647;DHT22;5880;52.342;9.662;2022-12-20T06:20:38;11.40;69.40
11647;DHT22;5880;52.342;9.662;2022-12-20T06:23:04;11.30;69.30
11647;DHT22;5880;52.342;9.662;2022-12-20T06:25:30;11.30;69.30
11647;DHT22;5880;52.342;9.662;2022-12-20T06:27:56;11.30;69.40
11647;DHT22;5880;52.342;9.662;2022-12-20T06:30:22;11.30;69.40
11647;DHT22;5880;52.342;9.662;2022-12-20T06:32:48;11.30;69.40
11647;DHT22;5880;52.342;9.662;2022-12-20T06:35:14;11.30;69.30
11647;DHT22;5880;52.342;9.662;2022-12-20T06:37:41;11.30;69.30
11647;DHT22;5880;52.342;9.662;2022-12-20T06:40:09;11.40;69.30
11647;DHT22;5880;52.342;9.662;2022-12-20T06:42:37;11.40;69.30
11647;DHT22;5880;52.342;9.662;2022-12-20T06:45:03;11.40;69.20
11647;DHT22;5880;52.342;9.662;2022-12-20T06:47:30;11.40;69.20
11647;DHT22;5880;52.342;9.662;2022-12-20T06:49:55;11.40;69.20
11647;DHT22;5880;52.342;9.662;2022-12-20T06:52:22;11.40;69.20
11647;DHT22;5880;52.342;9.662;2022-12-20T06:54:48;11.40;69.20
11647;DHT22;5880;52.342;9.662;2022-12-20T06:57:13;11.40;69.20
11647;DHT22;5880;52.342;9.662;2022-12-20T06:59:39;11.40;69.10
11647;DHT22;5880;52.342;9.662;2022-12-20T07:02:05;11.40;69.10
11647;DHT22;5880;52.342;9.662;2022-12-20T07:04:31;11.40;69.10
11647;DHT22;5880;52.342;9.662;2022-12-20T07:06:57;11.40;69.10
11647;DHT22;5880;52.342;9.662;2022-12-20T07:09:23;11.40;69.10
11647;DHT22;5880;52.342;9.662;2022-12-20T07:11:48;11.30;69.10
11647;DHT22;5880;52.342;9.662;2022-12-20T07:14:14;11.30;69.10
11647;DHT22;5880;52.342;9.662;2022-12-20T07:16:40;11.30;69.20
11647;DHT22;5880;52.342;9.662;2022-12-20T07:19:10;11.30;69.20
11647;DHT22;5880;52.342;9.662;2022-12-20T07:21:36;11.30;69.20
11647;DHT22;5880;52.342;9.662;2022-12-20T07:24:02;11.30;69.30
11647;DHT22;5880;52.342;9.662;2022-12-20T07:26:28;11.30;69.30
11647;DHT22;5880;52.342;9.662;2022-12-20T07:28:54;11.30;69.30
11647;DHT22;5880;52.342;9.662;2022-12-20T07:31:20;11.30;69.40
11647;DHT22;5880;52.342;9.662;2022-12-20T07:33:45;11.30;69.40
11647;DHT22;5880;52.342;9.662;2022-12-20T07:36:12;11.20;69.20
11647;DHT22;5880;52.342;9.662;2022-12-20T07:38:38;11.20;69.30
11647;DHT22;5880;52.342;9.662;2022-12-20T07:41:13;11.20;69.60
11647;DHT22;5880;52.342;9.662;2022-12-20T07:43:41;11.20;69.60
11647;DHT22;5880;52.342;9.662;2022-12-20T07:46:09;11.20;69.50
11647;DHT22;5880;52.342;9.662;2022-12-20T07:48:37;11.20;69.50
11647;DHT22;5880;52.342;9.662;2022-12-20T07:51:08;11.20;69.50
11647;DHT22;5880;52.342;9.662;2022-12-20T07:53:43;11.20;69.70
11647;DHT22;5880;52.342;9.662;2022-12-20T07:56:13;11.30;70.00
11647;DHT22;5880;52.342;9.662;2022-12-20T07:58:41;11.20;70.00
11647;DHT22;5880;52.342;9.662;2022-12-20T08:01:09;11.30;70.00
11647;DHT22;5880;52.342;9.662;2022-12-20T08:03:46;11.30;70.10
11647;DHT22;5880;52.342;9.662;2022-12-20T08:06:16;11.30;70.20
11647;DHT22;5880;52.342;9.662;2022-12-20T08:08:48;11.40;70.20
11647;DHT22;5880;52.342;9.662;2022-12-20T08:11:18;11.40;70.10
11647;DHT22;5880;52.342;9.662;2022-12-20T08:13:48;11.50;70.20
11647;DHT22;5880;52.342;9.662;2022-12-20T08:16:14;11.50;70.20
11647;DHT22;5880;52.342;9.662;2022-12-20T08:18:40;11.50;70.20
11647;DHT22;5880;52.342;9.662;2022-12-20T08:21:06;11.60;70.10
11647;DHT22;5880;52.342;9.662;2022-12-20T08:23:33;11.60;70.10
11647;DHT22;5880;52.342;9.662;2022-12-20T08:26:00;11.50;70.00
11647;DHT22;5880;52.342;9.662;2022-12-20T08:28:26;11.70;69.90
11647;DHT22;5880;52.342;9.662;2022-12-20T08:30:52;11.70;69.90
11647;DHT22;5880;52.342;9.662;2022-12-20T08:33:18;11.80;69.70
11647;DHT22;5880;52.342;9.662;2022-12-20T08:35:44;11.80;69.60
11647;DHT22;5880;52.342;9.662;2022-12-20T08:38:10;11.80;69.50
11647;DHT22;5880;52.342;9.662;2022-12-20T08:40:35;11.90;69.60
11647;DHT22;5880;52.342;9.662;2022-12-20T08:43:01;11.90;69.50
11647;DHT22;5880;52.342;9.662;2022-12-20T08:45:27;11.90;69.50
11647;DHT22;5880;52.342;9.662;2022-12-20T08:47:53;11.90;69.50
11647;DHT22;5880;52.342;9.662;2022-12-20T08:50:19;12.00;69.40
11647;DHT22;5880;52.342;9.662;2022-12-20T08:52:45;12.00;69.40
11647;DHT22;5880;52.342;9.662;2022-12-20T08:55:10;11.90;69.30
11647;DHT22;5880;52.342;9.662;2022-12-20T08:57:36;12.00;69.30
11647;DHT22;5880;52.342;9.662;2022-12-20T09:00:02;12.00;69.30
11647;DHT22;5880;52.342;9.662;2022-12-20T09:02:28;12.00;69.20
11647;DHT22;5880;52.342;9.662;2022-12-20T09:04:54;12.00;69.20
11647;DHT22;5880;52.342;9.662;2022-12-20T09:07:19;12.10;69.20
11647;DHT22;5880;52.342;9.662;2022-12-20T09:09:45;12.10;69.10
11647;DHT22;5880;52.342;9.662;2022-12-20T09:12:11;12.10;69.10
11647;DHT22;5880;52.342;9.662;2022-12-20T09:14:37;12.10;69.00
11647;DHT22;5880;52.342;9.662;2022-12-20T09:17:02;12.10;68.90
11647;DHT22;5880;52.342;9.662;2022-12-20T09:19:28;12.10;68.90
11647;DHT22;5880;52.342;9.662;2022-12-20T09:21:55;12.10;68.80
11647;DHT22;5880;52.342;9.662;2022-12-20T09:24:21;12.30;68.90
11647;DHT22;5880;52.342;9.662;2022-12-20T09:26:46;12.10;68.70
11647;DHT22;5880;52.342;9.662;2022-12-20T09:29:12;12.10;68.70
11647;DHT22;5880;52.342;9.662;2022-12-20T09:31:37;12.10;68.70
11647;DHT22;5880;52.342;9.662;2022-12-20T09:34:03;12.10;68.50
11647;DHT22;5880;52.342;9.662;2022-12-20T09:36:29;12.10;68.70
11647;DHT22;5880;52.342;9.662;2022-12-20T09:38:55;12.10;68.70
11647;DHT22;5880;52.342;9.662;2022-12-20T09:44:31;12.10;68.70
11647;DHT22;5880;52.342;9.662;2022-12-20T09:47:00;12.10;68.50
11647;DHT22;5880;52.342;9.662;2022-12-20T09:49:33;12.10;68.60
11647;DHT22;5880;52.342;9.662;2022-12-20T09:52:24;12.10;68.60
11647;DHT22;5880;52.342;9.662;2022-12-20T10:00:55;12.10;68.40
11647;DHT22;5880;52.342;9.662;2022-12-20T10:03:25;12.10;68.70
11647;DHT22;5880;52.342;9.662;2022-12-20T10:08:59;12.20;68.70
11647;DHT22;5880;52.342;9.662;2022-12-20T10:17:45;12.20;68.40
11647;DHT22;5880;52.342;9.662;2022-12-20T10:20:29;12.30;68.40
11647;DHT22;5880;52.342;9.662;2022-12-20T10:23:12;12.20;68.50
11647;DHT22;5880;52.342;9.662;2022-12-20T10:25:49;12.30;68.60
11647;DHT22;5880;52.342;9.662;2022-12-20T10:28:19;12.30;68.80
11647;DHT22;5880;52.342;9.662;2022-12-20T10:31:04;12.30;68.70
11647;DHT22;5880;52.342;9.662;2022-12-20T10:33:32;12.40;68.60
11647;DHT22;5880;52.342;9.662;2022-12-20T10:36:20;12.40;68.80
11647;DHT22;5880;52.342;9.662;2022-12-20T10:38:49;12.50;68.20
11647;DHT22;5880;52.342;9.662;2022-12-20T10:41:20;12.50;68.70
11647;DHT22;5880;52.342;9.662;2022-12-20T10:43:52;12.60;68.60
11647;DHT22;5880;52.342;9.662;2022-12-20T10:46:18;12.70;68.80
11647;DHT22;5880;52.342;9.662;2022-12-20T10:48:47;12.70;68.80
11647;DHT22;5880;52.342;9.662;2022-12-20T10:51:17;12.80;68.80
11647;DHT22;5880;52.342;9.662;2022-12-20T10:53:55;12.80;68.60
11647;DHT22;5880;52.342;9.662;2022-12-20T10:56:33;13.00;68.20
11647;DHT22;5880;52.342;9.662;2022-12-20T10:59:29;13.00;68.20
11647;DHT22;5880;52.342;9.662;2022-12-20T11:01:58;13.10;67.60
11647;DHT22;5880;52.342;9.662;2022-12-20T11:04:35;13.10;68.00
11647;DHT22;5880;52.342;9.662;2022-12-20T11:07:22;13.20;67.50
11647;DHT22;5880;52.342;9.662;2022-12-20T11:10:18;13.20;67.30
11647;DHT22;5880;52.342;9.662;2022-12-20T11:12:54;13.20;67.20
11647;DHT22;5880;52.342;9.662;2022-12-20T11:15:26;13.20;67.30
11647;DHT22;5880;52.342;9.662;2022-12-20T11:18:04;13.30;67.80
11647;DHT22;5880;52.342;9.662;2022-12-20T11:21:07;13.30;67.40
11647;DHT22;5880;52.342;9.662;2022-12-20T11:23:55;13.30;67.20
11647;DHT22;5880;52.342;9.662;2022-12-20T11:26:35;13.40;67.20
11647;DHT22;5880;52.342;9.662;2022-12-20T11:29:35;13.40;67.30
11647;DHT22;5880;52.342;9.662;2022-12-20T11:35:23;13.50;67.30
11647;DHT22;5880;52.342;9.662;2022-12-20T11:40:55;13.60;66.30
11647;DHT22;5880;52.342;9.662;2022-12-20T11:46:22;13.60;65.90
11647;DHT22;5880;52.342;9.662;2022-12-20T11:52:14;13.70;66.40
11647;DHT22;5880;52.342;9.662;2022-12-20T11:54:56;13.70;65.60
11647;DHT22;5880;52.342;9.662;2022-12-20T11:57:33;13.70;66.10
11647;DHT22;5880;52.342;9.662;2022-12-20T12:00:12;13.70;66.10
11647;DHT22;5880;52.342;9.662;2022-12-20T12:05:43;13.70;65.80
11647;DHT22;5880;52.342;9.662;2022-12-20T12:08:20;13.80;65.00
11647;DHT22;5880;52.342;9.662;2022-12-20T12:11:31;13.80;65.60
11647;DHT22;5880;52.342;9.662;2022-12-20T12:13:59;13.80;65.40
11647;DHT22;5880;52.342;9.662;2022-12-20T12:16:37;13.80;65.80
11647;DHT22;5880;52.342;9.662;2022-12-20T12:19:11;13.80;65.50
11647;DHT22;5880;52.342;9.662;2022-12-20T12:21:43;13.70;65.10
11647;DHT22;5880;52.342;9.662;2022-12-20T12:24:30;13.60;65.40
11647;DHT22;5880;52.342;9.662;2022-12-20T12:27:03;13.80;65.10
11647;DHT22;5880;52.342;9.662;2022-12-20T12:29:32;13.80;65.90
11647;DHT22;5880;52.342;9.662;2022-12-20T12:32:03;13.70;65.70
11647;DHT22;5880;52.342;9.662;2022-12-20T12:37:34;13.80;65.20
11647;DHT22;5880;52.342;9.662;2022-12-20T12:45:54;13.80;64.50
11647;DHT22;5880;52.342;9.662;2022-12-20T12:48:47;13.90;65.50
11647;DHT22;5880;52.342;9.662;2022-12-20T12:51:27;13.90;64.80
11647;DHT22;5880;52.342;9.662;2022-12-20T12:54:23;13.70;65.60
11647;DHT22;5880;52.342;9.662;2022-12-20T12:57:02;13.90;64.70
11647;DHT22;5880;52.342;9.662;2022-12-20T13:05:01;13.90;65.30
11647;DHT22;5880;52.342;9.662;2022-12-20T13:07:45;13.90;65.00
11647;DHT22;5880;52.342;9.662;2022-12-20T13:20:35;13.80;64.70
11647;DHT22;5880;52.342;9.662;2022-12-20T13:25:47;13.80;65.00
11647;DHT22;5880;52.342;9.662;2022-12-20T13:33:45;13.90;65.50
11647;DHT22;5880;52.342;9.662;2022-12-20T13:41:32;13.80;65.00
11647;DHT22;5880;52.342;9.662;2022-12-20T13:47:00;13.80;64.60
11647;DHT22;5880;52.342;9.662;2022-12-20T13:49:39;13.90;64.90
11647;DHT22;5880;52.342;9.662;2022-12-20T13:54:40;13.80;65.00
11647;DHT22;5880;52.342;9.662;2022-12-20T13:57:13;13.80;65.70
11647;DHT22;5880;52.342;9.662;2022-12-20T13:59:45;13.80;65.30
11647;DHT22;5880;52.342;9.662;2022-12-20T14:02:23;13.80;64.80
11647;DHT22;5880;52.342;9.662;2022-12-20T14:05:03;13.80;64.80
11647;DHT22;5880;52.342;9.662;2022-12-20T14:07:37;13.80;64.30
11647;DHT22;5880;52.342;9.662;2022-12-20T14:10:19;13.80;65.10
11647;DHT22;5880;52.342;9.662;2022-12-20T14:12:52;13.90;64.70
11647;DHT22;5880;52.342;9.662;2022-12-20T14:15:25;13.90;65.10
11647;DHT22;5880;52.342;9.662;2022-12-20T14:18:17;13.80;64.80
11647;DHT22;5880;52.342;9.662;2022-12-20T14:20:43;13.80;64.90
11647;DHT22;5880;52.342;9.662;2022-12-20T14:23:16;13.80;64.90
11647;DHT22;5880;52.342;9.662;2022-12-20T14:25:48;13.70;64.90
11647;DHT22;5880;52.342;9.662;2022-12-20T14:28:36;13.70;65.10
11647;DHT22;5880;52.342;9.662;2022-12-20T14:31:06;13.70;64.90
11647;DHT22;5880;52.342;9.662;2022-12-20T14:33:46;13.70;65.20
11647;DHT22;5880;52.342;9.662;2022-12-20T14:38:42;13.70;65.20
11647;DHT22;5880;52.342;9.662;2022-12-20T14:41:38;13.70;65.30
11647;DHT22;5880;52.342;9.662;2022-12-20T14:44:22;13.70;64.60
11647;DHT22;5880;52.342;9.662;2022-12-20T14:46:51;13.60;64.30
11647;DHT22;5880;52.342;9.662;2022-12-20T14:49:36;13.70;65.00
11647;DHT22;5880;52.342;9.662;2022-12-20T14:52:16;13.60;64.60
11647;DHT22;5880;52.342;9.662;2022-12-20T15:13:43;13.60;64.60
11647;DHT22;5880;52.342;9.662;2022-12-20T15:16:22;13.60;64.60
11647;DHT22;5880;52.342;9.662;2022-12-20T15:18:52;13.50;64.80
11647;DHT22;5880;52.342;9.662;2022-12-20T15:21:30;13.50;64.90
11647;DHT22;5880;52.342;9.662;2022-12-20T15:24:00;13.50;64.40
11647;DHT22;5880;52.342;9.662;2022-12-20T15:26:28;13.50;64.80
11647;DHT22;5880;52.342;9.662;2022-12-20T15:28:55;13.50;64.80
11647;DHT22;5880;52.342;9.662;2022-12-20T15:31:22;13.40;64.90
11647;DHT22;5880;52.342;9.662;2022-12-20T15:33:50;13.40;64.90
11647;DHT22;5880;52.342;9.662;2022-12-20T15:36:20;13.40;64.90
11647;DHT22;5880;52.342;9.662;2022-12-20T15:38:48;13.40;65.00
11647;DHT22;5880;52.342;9.662;2022-12-20T15:41:26;13.40;64.90
11647;DHT22;5880;52.342;9.662;2022-12-20T15:43:58;13.40;64.90
11647;DHT22;5880;52.342;9.662;2022-12-20T15:46:26;13.40;65.00
11647;DHT22;5880;52.342;9.662;2022-12-20T15:48:52;13.30;65.10
11647;DHT22;5880;52.342;9.662;2022-12-20T15:51:27;13.40;65.20
11647;DHT22;5880;52.342;9.662;2022-12-20T15:53:55;13.40;65.10
11647;DHT22;5880;52.342;9.662;2022-12-20T15:56:23;13.40;65.20
11647;DHT22;5880;52.342;9.662;2022-12-20T15:58:50;13.40;65.20
11647;DHT22;5880;52.342;9.662;2022-12-20T16:01:37;13.30;65.30
11647;DHT22;5880;52.342;9.662;2022-12-20T16:04:04;13.30;65.10
11647;DHT22;5880;52.342;9.662;2022-12-20T16:06:32;13.30;65.40
11647;DHT22;5880;52.342;9.662;2022-12-20T16:08:58;13.30;65.40
11647;DHT22;5880;52.342;9.662;2022-12-20T16:11:29;13.40;65.60
11647;DHT22;5880;52.342;9.662;2022-12-20T16:13:58;13.30;65.60
11647;DHT22;5880;52.342;9.662;2022-12-20T16:16:30;13.30;65.70
11647;DHT22;5880;52.342;9.662;2022-12-20T16:18:57;13.30;65.70
11647;DHT22;5880;52.342;9.662;2022-12-20T16:21:26;13.40;65.90
11647;DHT22;5880;52.342;9.662;2022-12-20T16:23:55;13.40;65.70
11647;DHT22;5880;52.342;9.662;2022-12-20T16:26:23;13.40;65.80
11647;DHT22;5880;52.342;9.662;2022-12-20T16:28:52;13.40;65.80
11647;DHT22;5880;52.342;9.662;2022-12-20T16:31:39;13.40;65.80
11647;DHT22;5880;52.342;9.662;2022-12-20T16:34:16;13.50;65.80
11647;DHT22;5880;52.342;9.662;2022-12-20T16:36:43;13.50;65.90
11647;DHT22;5880;52.342;9.662;2022-12-20T16:39:09;13.50;65.90
11647;DHT22;5880;52.342;9.662;2022-12-20T16:41:36;13.50;65.80
11647;DHT22;5880;52.342;9.662;2022-12-20T16:44:05;13.50;65.90
11647;DHT22;5880;52.342;9.662;2022-12-20T16:46:39;13.50;65.80
11647;DHT22;5880;52.342;9.662;2022-12-20T16:49:07;13.50;65.80
11647;DHT22;5880;52.342;9.662;2022-12-20T16:51:41;13.50;65.80
11647;DHT22;5880;52.342;9.662;2022-12-20T16:54:17;13.50;66.00
11647;DHT22;5880;52.342;9.662;2022-12-20T16:56:45;13.50;65.90
11647;DHT22;5880;52.342;9.662;2022-12-20T16:59:16;13.40;65.70
11647;DHT22;5880;52.342;9.662;2022-12-20T17:01:43;13.40;65.70
11647;DHT22;5880;52.342;9.662;2022-12-20T17:04:13;13.30;65.80
11647;DHT22;5880;52.342;9.662;2022-12-20T17:06:41;13.30;66.00
11647;DHT22;5880;52.342;9.662;2022-12-20T17:09:08;13.20;65.90
11647;DHT22;5880;52.342;9.662;2022-12-20T17:11:35;13.20;66.00
11647;DHT22;5880;52.342;9.662;2022-12-20T17:14:02;13.20;66.10
11647;DHT22;5880;52.342;9.662;2022-12-20T17:16:28;13.10;66.30
11647;DHT22;5880;52.342;9.662;2022-12-20T17:18:55;13.10;66.50
11647;DHT22;5880;52.342;9.662;2022-12-20T17:21:32;13.00;66.60
11647;DHT22;5880;52.342;9.662;2022-12-20T17:24:20;13.10;67.00
11647;DHT22;5880;52.342;9.662;2022-12-20T17:26:47;13.00;67.00
11647;DHT22;5880;52.342;9.662;2022-12-20T17:29:13;13.10;67.20
11647;DHT22;5880;52.342;9.662;2022-12-20T17:31:40;13.00;67.20
11647;DHT22;5880;52.342;9.662;2022-12-20T17:34:16;13.00;67.50
11647;DHT22;5880;52.342;9.662;2022-12-20T17:36:44;13.10;67.90
11647;DHT22;5880;52.342;9.662;2022-12-20T17:39:10;13.10;67.70
11647;DHT22;5880;52.342;9.662;2022-12-20T17:41:36;13.10;67.70
11647;DHT22;5880;52.342;9.662;2022-12-20T17:44:03;13.10;67.70
11647;DHT22;5880;52.342;9.662;2022-12-20T17:46:30;13.20;67.70
11647;DHT22;5880;52.342;9.662;2022-12-20T17:48:57;13.20;67.70
11647;DHT22;5880;52.342;9.662;2022-12-20T17:51:27;13.20;67.60
11647;DHT22;5880;52.342;9.662;2022-12-20T17:53:56;13.20;67.60
11647;DHT22;5880;52.342;9.662;2022-12-20T17:56:25;13.10;67.50
11647;DHT22;5880;52.342;9.662;2022-12-20T17:58:53;13.10;67.40
11647;DHT22;5880;52.342;9.662;2022-12-20T18:01:28;13.10;67.50
11647;DHT22;5880;52.342;9.662;2022-12-20T18:03:57;13.10;67.60